sensor_id;sensor_type;location;lat;lon;timestamp;P1;durP1;ratioP1;P2;durP2;ratioP2
75912;SDS011;64592;52.168;21.040;2023-02-28T00:03:57;21.02;;;8.55;;
75912;SDS011;64592;52.168;21.040;2023-02-28T00:08:59;16.63;;;9.48;;
75912;SDS011;64592;52.168;21.040;2023-02-28T00:14:01;17.35;;;8.55;;
75912;SDS011;64592;52.168;21.040;2023-02-28T00:19:04;17.50;;;8.77;;
75912;SDS011;64592;52.168;21.040;2023-02-28T00:24:06;20.75;;;9.52;;
75912;SDS011;64592;52.168;21.040;2023-02-28T00:29:07;19.75;;;9.40;;
75912;SDS011;64592;52.168;21.040;2023-02-28T00:39:12;20.23;;;8.93;;
75912;SDS011;64592;52.168;21.040;2023-02-28T00:49:17;18.08;;;8.50;;
75912;SDS011;64592;52.168;21.040;2023-02-28T00:54:19;20.98;;;10.18;;
75912;SDS011;64592;52.168;21.040;2023-02-28T00:59:21;17.38;;;9.40;;
75912;SDS011;64592;52.168;21.040;2023-02-28T01:04:24;17.05;;;9.50;;
75912;SDS011;64592;52.168;21.040;2023-02-28T01:09:26;14.80;;;9.00;;
75912;SDS011;64592;52.168;21.040;2023-02-28T01:14:27;21.10;;;8.68;;
75912;SDS011;64592;52.168;21.040;2023-02-28T01:19:31;17.70;;;9.25;;
75912;SDS011;64592;52.168;21.040;2023-02-28T01:24:32;24.60;;;10.07;;
75912;SDS011;64592;52.168;21.040;2023-02-28T01:29:34;19.20;;;9.23;;
75912;SDS011;64592;52.168;21.040;2023-02-28T01:34:37;18.17;;;8.93;;
75912;SDS011;64592;52.168;21.040;2023-02-28T01:39:39;16.95;;;8.38;;
75912;SDS011;64592;52.168;21.040;2023-02-28T01:44:55;20.65;;;9.38;;
75912;SDS011;64592;52.168;21.040;2023-02-28T01:50:04;18.52;;;8.27;;
75912;SDS011;64592;52.168;21.040;2023-02-28T01:55:10;14.77;;;8.60;;
75912;SDS011;64592;52.168;21.040;2023-02-28T02:00:14;14.52;;;8.13;;
75912;SDS011;64592;52.168;21.040;2023-02-28T02:05:20;16.67;;;8.55;;
75912;SDS011;64592;52.168;21.040;2023-02-28T02:10:25;16.88;;;8.95;;
75912;SDS011;64592;52.168;21.040;2023-02-28T02:15:32;16.23;;;8.77;;
75912;SDS011;64592;52.168;21.040;2023-02-28T02:20:49;14.60;;;7.13;;
75912;SDS011;64592;52.168;21.040;2023-02-28T02:32:02;14.70;;;7.95;;
75912;SDS011;64592;52.168;21.040;2023-02-28T02:37:21;20.52;;;8.38;;
75912;SDS011;64592;52.168;21.040;2023-02-28T02:42:33;13.27;;;8.55;;
75912;SDS011;64592;52.168;21.040;2023-02-28T02:47:40;13.75;;;8.43;;
75912;SDS011;64592;52.168;21.040;2023-02-28T02:52:47;16.77;;;9.88;;
75912;SDS011;64592;52.168;21.040;2023-02-28T02:57:53;19.60;;;8.70;;
75912;SDS011;64592;52.168;21.040;2023-02-28T03:02:57;19.10;;;8.98;;
75912;SDS011;64592;52.168;21.040;2023-02-28T03:08:01;21.20;;;8.82;;
75912;SDS011;64592;52.168;21.040;2023-02-28T03:13:11;16.15;;;8.50;;
75912;SDS011;64592;52.168;21.040;2023-02-28T03:18:25;20.40;;;7.90;;
75912;SDS011;64592;52.168;21.040;2023-02-28T03:23:41;14.95;;;8.40;;
75912;SDS011;64592;52.168;21.040;2023-02-28T03:28:49;16.35;;;8.05;;
75912;SDS011;64592;52.168;21.040;2023-02-28T03:33:58;12.63;;;7.88;;
75912;SDS011;64592;52.168;21.040;2023-02-28T03:39:05;18.90;;;7.82;;
75912;SDS011;64592;52.168;21.040;2023-02-28T03:44:10;17.00;;;7.93;;
75912;SDS011;64592;52.168;21.040;2023-02-28T03:49:18;17.75;;;9.13;;
75912;SDS011;64592;52.168;21.040;2023-02-28T03:54:25;14.68;;;7.40;;
75912;SDS011;64592;52.168;21.040;2023-02-28T03:59:32;17.52;;;8.10;;
75912;SDS011;64592;52.168;21.040;2023-02-28T04:04:38;20.40;;;9.00;;
75912;SDS011;64592;52.168;21.040;2023-02-28T04:09:49;16.38;;;7.20;;
75912;SDS011;64592;52.168;21.040;2023-02-28T04:14:51;12.70;;;6.80;;
75912;SDS011;64592;52.168;21.040;2023-02-28T04:19:53;17.77;;;7.70;;
75912;SDS011;64592;52.168;21.040;2023-02-28T04:24:58;18.17;;;8.27;;
75912;SDS011;64592;52.168;21.040;2023-02-28T04:30:00;18.33;;;8.30;;
75912;SDS011;64592;52.168;21.040;2023-02-28T04:35:02;12.90;;;7.47;;
75912;SDS011;64592;52.168;21.040;2023-02-28T04:40:06;17.30;;;9.07;;
75912;SDS011;64592;52.168;21.040;2023-02-28T04:45:09;13.98;;;8.52;;
75912;SDS011;64592;52.168;21.040;2023-02-28T04:50:11;15.98;;;7.07;;
75912;SDS011;64592;52.168;21.040;2023-02-28T04:55:14;17.10;;;7.95;;
75912;SDS011;64592;52.168;21.040;2023-02-28T05:00:16;13.70;;;7.57;;
75912;SDS011;64592;52.168;21.040;2023-02-28T05:05:18;16.05;;;6.55;;
75912;SDS011;64592;52.168;21.040;2023-02-28T05:15:23;12.93;;;6.88;;
75912;SDS011;64592;52.168;21.040;2023-02-28T05:20:25;18.08;;;8.43;;
75912;SDS011;64592;52.168;21.040;2023-02-28T05:25:28;13.75;;;8.13;;
75912;SDS011;64592;52.168;21.040;2023-02-28T05:30:30;12.23;;;7.00;;
75912;SDS011;64592;52.168;21.040;2023-02-28T05:35:32;16.05;;;7.97;;
75912;SDS011;64592;52.168;21.040;2023-02-28T05:40:35;14.88;;;8.65;;
75912;SDS011;64592;52.168;21.040;2023-02-28T05:45:39;17.90;;;8.63;;
75912;SDS011;64592;52.168;21.040;2023-02-28T05:50:41;14.23;;;8.40;;
75912;SDS011;64592;52.168;21.040;2023-02-28T05:55:46;13.18;;;8.07;;
75912;SDS011;64592;52.168;21.040;2023-02-28T06:00:48;17.38;;;8.52;;
75912;SDS011;64592;52.168;21.040;2023-02-28T06:10:52;16.95;;;9.07;;
75912;SDS011;64592;52.168;21.040;2023-02-28T06:15:54;13.43;;;7.50;;
75912;SDS011;64592;52.168;21.040;2023-02-28T06:20:56;12.80;;;7.57;;
75912;SDS011;64592;52.168;21.040;2023-02-28T06:25:59;18.55;;;8.75;;
75912;SDS011;64592;52.168;21.040;2023-02-28T06:31:05;16.75;;;8.80;;
75912;SDS011;64592;52.168;21.040;2023-02-28T06:36:08;13.85;;;6.47;;
75912;SDS011;64592;52.168;21.040;2023-02-28T06:41:12;16.83;;;6.72;;
75912;SDS011;64592;52.168;21.040;2023-02-28T06:46:14;16.45;;;8.27;;
75912;SDS011;64592;52.168;21.040;2023-02-28T06:51:17;11.85;;;7.93;;
75912;SDS011;64592;52.168;21.040;2023-02-28T06:56:21;20.75;;;8.38;;
75912;SDS011;64592;52.168;21.040;2023-02-28T07:01:23;28.60;;;8.40;;
75912;SDS011;64592;52.168;21.040;2023-02-28T07:06:25;17.58;;;7.35;;
75912;SDS011;64592;52.168;21.040;2023-02-28T07:11:29;21.20;;;8.95;;
75912;SDS011;64592;52.168;21.040;2023-02-28T07:16:30;18.58;;;8.95;;
75912;SDS011;64592;52.168;21.040;2023-02-28T07:21:32;16.20;;;8.15;;
75912;SDS011;64592;52.168;21.040;2023-02-28T07:26:35;16.90;;;7.88;;
75912;SDS011;64592;52.168;21.040;2023-02-28T07:31:37;18.40;;;8.23;;
75912;SDS011;64592;52.168;21.040;2023-02-28T07:36:38;15.15;;;8.70;;
75912;SDS011;64592;52.168;21.040;2023-02-28T07:46:44;10.15;;;5.43;;
75912;SDS011;64592;52.168;21.040;2023-02-28T07:51:45;16.23;;;7.63;;
75912;SDS011;64592;52.168;21.040;2023-02-28T07:56:48;10.23;;;5.43;;
75912;SDS011;64592;52.168;21.040;2023-02-28T08:01:50;10.32;;;6.05;;
75912;SDS011;64592;52.168;21.040;2023-02-28T08:06:52;8.48;;;4.68;;
75912;SDS011;64592;52.168;21.040;2023-02-28T08:16:56;9.35;;;4.85;;
75912;SDS011;64592;52.168;21.040;2023-02-28T08:21:58;12.63;;;4.50;;
75912;SDS011;64592;52.168;21.040;2023-02-28T08:27:01;6.57;;;3.80;;
75912;SDS011;64592;52.168;21.040;2023-02-28T08:32:03;8.57;;;5.13;;
75912;SDS011;64592;52.168;21.040;2023-02-28T08:37:05;13.02;;;5.55;;
75912;SDS011;64592;52.168;21.040;2023-02-28T08:42:09;11.45;;;5.53;;
75912;SDS011;64592;52.168;21.040;2023-02-28T08:47:10;5.22;;;4.18;;
75912;SDS011;64592;52.168;21.040;2023-02-28T08:52:12;9.25;;;5.60;;
75912;SDS011;64592;52.168;21.040;2023-02-28T08:57:15;13.05;;;5.47;;
75912;SDS011;64592;52.168;21.040;2023-02-28T09:02:17;10.70;;;5.22;;
75912;SDS011;64592;52.168;21.040;2023-02-28T09:07:19;8.57;;;5.00;;
75912;SDS011;64592;52.168;21.040;2023-02-28T09:12:23;12.82;;;5.80;;
75912;SDS011;64592;52.168;21.040;2023-02-28T09:17:25;13.15;;;6.20;;
75912;SDS011;64592;52.168;21.040;2023-02-28T09:22:27;8.80;;;5.45;;
75912;SDS011;64592;52.168;21.040;2023-02-28T09:27:30;11.15;;;5.72;;
75912;SDS011;64592;52.168;21.040;2023-02-28T09:32:31;8.88;;;5.40;;
75912;SDS011;64592;52.168;21.040;2023-02-28T09:37:33;9.38;;;4.60;;
75912;SDS011;64592;52.168;21.040;2023-02-28T09:42:36;12.23;;;5.70;;
75912;SDS011;64592;52.168;21.040;2023-02-28T09:47:38;15.95;;;5.95;;
75912;SDS011;64592;52.168;21.040;2023-02-28T09:52:45;10.68;;;6.05;;
75912;SDS011;64592;52.168;21.040;2023-02-28T09:57:52;17.85;;;6.00;;
75912;SDS011;64592;52.168;21.040;2023-02-28T10:08:35;10.85;;;5.70;;
75912;SDS011;64592;52.168;21.040;2023-02-28T10:13:48;9.10;;;5.55;;
75912;SDS011;64592;52.168;21.040;2023-02-28T10:18:56;10.05;;;5.18;;
75912;SDS011;64592;52.168;21.040;2023-02-28T10:24:05;11.95;;;5.72;;
75912;SDS011;64592;52.168;21.040;2023-02-28T10:29:21;11.50;;;5.97;;
75912;SDS011;64592;52.168;21.040;2023-02-28T10:34:23;9.35;;;5.00;;
75912;SDS011;64592;52.168;21.040;2023-02-28T10:39:39;9.10;;;6.35;;
75912;SDS011;64592;52.168;21.040;2023-02-28T10:44:43;9.82;;;5.25;;
75912;SDS011;64592;52.168;21.040;2023-02-28T10:49:49;10.38;;;6.82;;
75912;SDS011;64592;52.168;21.040;2023-02-28T10:54:52;9.00;;;6.07;;
75912;SDS011;64592;52.168;21.040;2023-02-28T11:00:17;11.60;;;6.68;;
75912;SDS011;64592;52.168;21.040;2023-02-28T11:05:28;12.98;;;6.05;;
75912;SDS011;64592;52.168;21.040;2023-02-28T11:10:31;8.98;;;6.50;;
75912;SDS011;64592;52.168;21.040;2023-02-28T11:15:36;12.32;;;6.47;;
75912;SDS011;64592;52.168;21.040;2023-02-28T11:20:37;13.18;;;6.75;;
75912;SDS011;64592;52.168;21.040;2023-02-28T11:25:40;12.80;;;6.82;;
75912;SDS011;64592;52.168;21.040;2023-02-28T11:30:59;13.38;;;7.40;;
75912;SDS011;64592;52.168;21.040;2023-02-28T11:36:04;13.13;;;7.18;;
75912;SDS011;64592;52.168;21.040;2023-02-28T11:41:25;11.05;;;7.05;;
75912;SDS011;64592;52.168;21.040;2023-02-28T11:51:59;14.73;;;7.53;;
75912;SDS011;64592;52.168;21.040;2023-02-28T11:57:09;16.38;;;8.48;;
75912;SDS011;64592;52.168;21.040;2023-02-28T12:02:25;15.05;;;7.43;;
75912;SDS011;64592;52.168;21.040;2023-02-28T12:07:31;14.48;;;8.15;;
75912;SDS011;64592;52.168;21.040;2023-02-28T12:12:39;12.10;;;7.25;;
75912;SDS011;64592;52.168;21.040;2023-02-28T12:17:54;12.10;;;7.75;;
75912;SDS011;64592;52.168;21.040;2023-02-28T12:23:10;14.15;;;7.72;;
75912;SDS011;64592;52.168;21.040;2023-02-28T12:28:39;13.07;;;7.45;;
75912;SDS011;64592;52.168;21.040;2023-02-28T12:33:46;13.32;;;8.95;;
75912;SDS011;64592;52.168;21.040;2023-02-28T12:38:53;15.98;;;8.82;;
75912;SDS011;64592;52.168;21.040;2023-02-28T12:44:01;18.48;;;8.75;;
75912;SDS011;64592;52.168;21.040;2023-02-28T12:49:09;17.25;;;8.50;;
75912;SDS011;64592;52.168;21.040;2023-02-28T12:54:19;14.10;;;8.00;;
75912;SDS011;64592;52.168;21.040;2023-02-28T12:59:25;15.20;;;7.85;;
75912;SDS011;64592;52.168;21.040;2023-02-28T13:04:43;14.30;;;7.70;;
75912;SDS011;64592;52.168;21.040;2023-02-28T13:10:02;11.70;;;7.32;;
75912;SDS011;64592;52.168;21.040;2023-02-28T13:15:07;16.55;;;6.72;;
75912;SDS011;64592;52.168;21.040;2023-02-28T13:20:21;12.25;;;6.45;;
75912;SDS011;64592;52.168;21.040;2023-02-28T13:31:04;12.23;;;7.30;;
75912;SDS011;64592;52.168;21.040;2023-02-28T13:36:09;12.55;;;7.65;;
75912;SDS011;64592;52.168;21.040;2023-02-28T13:41:42;12.55;;;7.45;;
75912;SDS011;64592;52.168;21.040;2023-02-28T13:52:25;13.38;;;7.93;;
75912;SDS011;64592;52.168;21.040;2023-02-28T13:57:31;14.07;;;7.65;;
75912;SDS011;64592;52.168;21.040;2023-02-28T14:02:54;12.20;;;7.75;;
75912;SDS011;64592;52.168;21.040;2023-02-28T14:08:13;17.63;;;7.47;;
75912;SDS011;64592;52.168;21.040;2023-02-28T14:13:36;12.43;;;7.85;;
75912;SDS011;64592;52.168;21.040;2023-02-28T14:18:47;12.63;;;7.88;;
75912;SDS011;64592;52.168;21.040;2023-02-28T14:29:23;13.18;;;7.93;;
75912;SDS011;64592;52.168;21.040;2023-02-28T14:34:39;13.85;;;8.02;;
75912;SDS011;64592;52.168;21.040;2023-02-28T14:39:50;16.27;;;8.10;;
75912;SDS011;64592;52.168;21.040;2023-02-28T14:44:53;16.02;;;7.65;;
75912;SDS011;64592;52.168;21.040;2023-02-28T14:49:56;15.00;;;8.50;;
75912;SDS011;64592;52.168;21.040;2023-02-28T14:55:00;13.27;;;7.97;;
75912;SDS011;64592;52.168;21.040;2023-02-28T15:00:06;12.95;;;8.13;;
75912;SDS011;64592;52.168;21.040;2023-02-28T15:05:25;15.10;;;7.53;;
75912;SDS011;64592;52.168;21.040;2023-02-28T15:10:31;11.93;;;7.70;;
75912;SDS011;64592;52.168;21.040;2023-02-28T15:15:36;13.57;;;8.60;;
75912;SDS011;64592;52.168;21.040;2023-02-28T15:20:44;11.63;;;7.30;;
75912;SDS011;64592;52.168;21.040;2023-02-28T15:25:48;14.77;;;7.97;;
75912;SDS011;64592;52.168;21.040;2023-02-28T15:30:52;11.75;;;8.27;;
75912;SDS011;64592;52.168;21.040;2023-02-28T15:36:03;14.75;;;7.85;;
75912;SDS011;64592;52.168;21.040;2023-02-28T15:41:23;15.07;;;7.93;;
75912;SDS011;64592;52.168;21.040;2023-02-28T15:46:26;11.13;;;7.97;;
75912;SDS011;64592;52.168;21.040;2023-02-28T15:51:29;14.25;;;7.20;;
75912;SDS011;64592;52.168;21.040;2023-02-28T15:56:35;13.65;;;7.32;;
75912;SDS011;64592;52.168;21.040;2023-02-28T16:01:40;14.65;;;7.57;;
75912;SDS011;64592;52.168;21.040;2023-02-28T16:06:42;16.58;;;8.32;;
75912;SDS011;64592;52.168;21.040;2023-02-28T16:11:46;12.80;;;7.45;;
75912;SDS011;64592;52.168;21.040;2023-02-28T16:16:50;15.68;;;7.88;;
75912;SDS011;64592;52.168;21.040;2023-02-28T16:21:54;15.05;;;8.20;;
75912;SDS011;64592;52.168;21.040;2023-02-28T16:26:57;15.35;;;7.88;;
75912;SDS011;64592;52.168;21.040;2023-02-28T16:32:00;14.57;;;7.65;;
75912;SDS011;64592;52.168;21.040;2023-02-28T16:37:04;16.10;;;7.55;;
75912;SDS011;64592;52.168;21.040;2023-02-28T16:42:14;14.10;;;8.02;;
75912;SDS011;64592;52.168;21.040;2023-02-28T16:47:17;14.18;;;7.75;;
75912;SDS011;64592;52.168;21.040;2023-02-28T16:52:19;14.68;;;8.13;;
75912;SDS011;64592;52.168;21.040;2023-02-28T16:57:22;16.08;;;8.05;;
75912;SDS011;64592;52.168;21.040;2023-02-28T17:02:24;17.48;;;7.90;;
75912;SDS011;64592;52.168;21.040;2023-02-28T17:07:26;13.77;;;8.43;;
75912;SDS011;64592;52.168;21.040;2023-02-28T17:12:29;14.50;;;8.20;;
75912;SDS011;64592;52.168;21.040;2023-02-28T17:17:31;15.50;;;8.40;;
75912;SDS011;64592;52.168;21.040;2023-02-28T17:22:33;17.75;;;9.85;;
75912;SDS011;64592;52.168;21.040;2023-02-28T17:27:36;20.13;;;9.15;;
75912;SDS011;64592;52.168;21.040;2023-02-28T17:32:38;15.48;;;9.48;;
75912;SDS011;64592;52.168;21.040;2023-02-28T17:37:40;16.80;;;9.38;;
75912;SDS011;64592;52.168;21.040;2023-02-28T17:42:43;18.73;;;9.02;;
75912;SDS011;64592;52.168;21.040;2023-02-28T17:47:46;19.70;;;10.43;;
75912;SDS011;64592;52.168;21.040;2023-02-28T17:52:50;20.08;;;9.52;;
75912;SDS011;64592;52.168;21.040;2023-02-28T17:57:53;18.58;;;10.27;;
75912;SDS011;64592;52.168;21.040;2023-02-28T18:02:54;26.88;;;11.75;;
75912;SDS011;64592;52.168;21.040;2023-02-28T18:07:56;17.98;;;10.55;;
75912;SDS011;64592;52.168;21.040;2023-02-28T18:12:59;25.95;;;11.80;;
75912;SDS011;64592;52.168;21.040;2023-02-28T18:18:03;25.40;;;11.43;;
75912;SDS011;64592;52.168;21.040;2023-02-28T18:23:06;19.48;;;11.27;;
75912;SDS011;64592;52.168;21.040;2023-02-28T18:28:09;23.20;;;12.60;;
75912;SDS011;64592;52.168;21.040;2023-02-28T18:33:11;29.38;;;13.20;;
75912;SDS011;64592;52.168;21.040;2023-02-28T18:38:13;24.23;;;12.45;;
75912;SDS011;64592;52.168;21.040;2023-02-28T18:43:19;27.15;;;12.98;;
75912;SDS011;64592;52.168;21.040;2023-02-28T18:48:21;24.98;;;12.13;;
75912;SDS011;64592;52.168;21.040;2023-02-28T18:53:23;24.88;;;13.15;;
75912;SDS011;64592;52.168;21.040;2023-02-28T18:58:26;28.77;;;14.07;;
75912;SDS011;64592;52.168;21.040;2023-02-28T19:03:28;33.80;;;17.48;;
75912;SDS011;64592;52.168;21.040;2023-02-28T19:08:29;43.78;;;18.30;;
75912;SDS011;64592;52.168;21.040;2023-02-28T19:13:33;45.85;;;19.92;;
75912;SDS011;64592;52.168;21.040;2023-02-28T19:18:35;37.67;;;18.45;;
75912;SDS011;64592;52.168;21.040;2023-02-28T19:23:37;43.63;;;19.60;;
75912;SDS011;64592;52.168;21.040;2023-02-28T19:28:41;40.58;;;17.70;;
75912;SDS011;64592;52.168;21.040;2023-02-28T19:33:43;39.20;;;18.88;;
75912;SDS011;64592;52.168;21.040;2023-02-28T19:38:45;39.42;;;18.02;;
75912;SDS011;64592;52.168;21.040;2023-02-28T19:43:49;36.47;;;17.80;;
75912;SDS011;64592;52.168;21.040;2023-02-28T19:48:53;41.17;;;17.60;;
75912;SDS011;64592;52.168;21.040;2023-02-28T19:53:55;42.55;;;17.10;;
75912;SDS011;64592;52.168;21.040;2023-02-28T19:58:58;34.22;;;15.98;;
75912;SDS011;64592;52.168;21.040;2023-02-28T20:04:00;30.70;;;15.63;;
75912;SDS011;64592;52.168;21.040;2023-02-28T20:09:03;34.90;;;16.38;;
75912;SDS011;64592;52.168;21.040;2023-02-28T20:14:06;27.23;;;14.60;;
75912;SDS011;64592;52.168;21.040;2023-02-28T20:19:08;36.20;;;15.95;;
75912;SDS011;64592;52.168;21.040;2023-02-28T20:24:10;33.17;;;17.77;;
75912;SDS011;64592;52.168;21.040;2023-02-28T20:29:13;30.13;;;16.95;;
75912;SDS011;64592;52.168;21.040;2023-02-28T20:34:15;35.08;;;16.90;;
75912;SDS011;64592;52.168;21.040;2023-02-28T20:39:17;47.25;;;17.85;;
75912;SDS011;64592;52.168;21.040;2023-02-28T20:44:20;42.30;;;17.30;;
75912;SDS011;64592;52.168;21.040;2023-02-28T20:49:22;34.25;;;17.20;;
75912;SDS011;64592;52.168;21.040;2023-02-28T20:54:23;39.60;;;18.13;;
75912;SDS011;64592;52.168;21.040;2023-02-28T20:59:26;45.85;;;19.48;;
75912;SDS011;64592;52.168;21.040;2023-02-28T21:04:28;40.05;;;19.83;;
75912;SDS011;64592;52.168;21.040;2023-02-28T21:09:30;33.22;;;17.27;;
75912;SDS011;64592;52.168;21.040;2023-02-28T21:14:33;41.85;;;18.38;;
75912;SDS011;64592;52.168;21.040;2023-02-28T21:19:34;41.58;;;17.98;;
75912;SDS011;64592;52.168;21.040;2023-02-28T21:24:36;39.67;;;21.10;;
75912;SDS011;64592;52.168;21.040;2023-02-28T21:29:39;51.45;;;24.23;;
75912;SDS011;64592;52.168;21.040;2023-02-28T21:34:41;53.28;;;24.30;;
75912;SDS011;64592;52.168;21.040;2023-02-28T21:39:43;51.38;;;22.42;;
75912;SDS011;64592;52.168;21.040;2023-02-28T21:44:46;57.97;;;24.00;;
75912;SDS011;64592;52.168;21.040;2023-02-28T21:49:49;53.35;;;26.13;;
75912;SDS011;64592;52.168;21.040;2023-02-28T21:54:51;62.17;;;27.92;;
75912;SDS011;64592;52.168;21.040;2023-02-28T21:59:54;56.40;;;27.92;;
75912;SDS011;64592;52.168;21.040;2023-02-28T22:04:56;63.70;;;26.55;;
75912;SDS011;64592;52.168;21.040;2023-02-28T22:10:02;52.45;;;27.05;;
75912;SDS011;64592;52.168;21.040;2023-02-28T22:15:06;57.60;;;24.88;;
75912;SDS011;64592;52.168;21.040;2023-02-28T22:20:09;53.50;;;26.02;;
75912;SDS011;64592;52.168;21.040;2023-02-28T22:25:11;60.78;;;25.13;;
75912;SDS011;64592;52.168;21.040;2023-02-28T22:30:15;57.55;;;26.20;;
75912;SDS011;64592;52.168;21.040;2023-02-28T22:35:17;53.90;;;26.73;;
75912;SDS011;64592;52.168;21.040;2023-02-28T22:40:19;51.00;;;23.98;;
75912;SDS011;64592;52.168;21.040;2023-02-28T22:45:22;61.88;;;27.20;;
75912;SDS011;64592;52.168;21.040;2023-02-28T22:50:24;55.72;;;23.88;;
75912;SDS011;64592;52.168;21.040;2023-02-28T22:55:26;50.03;;;21.90;;
75912;SDS011;64592;52.168;21.040;2023-02-28T23:00:29;54.42;;;24.90;;
75912;SDS011;64592;52.168;21.040;2023-02-28T23:05:31;58.53;;;27.63;;
75912;SDS011;64592;52.168;21.040;2023-02-28T23:10:32;51.17;;;25.85;;
75912;SDS011;64592;52.168;21.040;2023-02-28T23:15:37;73.22;;;30.80;;
75912;SDS011;64592;52.168;21.040;2023-02-28T23:20:40;68.70;;;29.35;;
75912;SDS011;64592;52.168;21.040;2023-02-28T23:25:42;64.03;;;29.77;;
75912;SDS011;64592;52.168;21.040;2023-02-28T23:30:45;64.47;;;28.75;;
75912;SDS011;64592;52.168;21.040;2023-02-28T23:35:47;60.78;;;25.27;;
75912;SDS011;64592;52.168;21.040;2023-02-28T23:40:48;59.90;;;25.75;;
75912;SDS011;64592;52.168;21.040;2023-02-28T23:45:55;63.97;;;24.58;;
75912;SDS011;64592;52.168;21.040;2023-02-28T23:51:00;57.83;;;26.38;;
75912;SDS011;64592;52.168;21.040;2023-02-28T23:56:07;51.10;;;25.67;;
